Time;durP1;ratioP1;P1;durP2;ratioP2;P2;SDS_P1;SDS_P2;PMS_P1;PMS_P2;Temp;Humidity;BMP_temperature;BMP_pressure;BME280_temperature;BME280_humidity;BME280_pressure;Samples;Min_cycle;Max_cycle;Signal;HPM_P1;HPM_P2
2022/10/25 00:01:10;;;;;;;20.72;13.13;;;;;;;;;;1792610;80;21000;-62
2022/10/25 00:03:36;;;;;;;18.10;12.20;;;;;;;;;;1781175;80;21028;-62
2022/10/25 00:06:03;;;;;;;19.77;13.03;;;;;;;;;;1779061;80;21053;-62
2022/10/25 00:08:29;;;;;;;17.60;12.50;;;;;;;;;;1785363;80;21047;-60
2022/10/25 00:10:55;;;;;;;18.65;12.47;;;;;;;;;;1789901;80;21092;-62
2022/10/25 00:13:23;;;;;;;22.05;13.10;;;;;;;;;;1779655;80;21063;-62
2022/10/25 00:15:49;;;;;;;21.40;13.03;;;;;;;;;;1790346;80;21012;-62
2022/10/25 00:18:16;;;;;;;19.45;11.97;;;;;;;;;;1777621;80;21079;-62
2022/10/25 00:20:45;;;;;;;20.37;13.03;;;;;;;;;;1783072;80;21531;-62
2022/10/25 00:23:12;;;;;;;19.15;12.68;;;;;;;;;;1789239;80;20983;-62
2022/10/25 00:25:40;;;;;;;20.23;14.58;;;;;;;;;;1782927;80;21066;-61
2022/10/25 00:28:06;;;;;;;18.52;12.43;;;;;;;;;;1749202;82;21054;-61
2022/10/25 00:30:33;;;;;;;18.40;13.05;;;;;;;;;;1745604;82;21080;-61
2022/10/25 00:32:59;;;;;;;18.30;12.33;;;;;;;;;;1767386;79;21089;-61
2022/10/25 00:35:25;;;;;;;23.92;13.35;;;;;;;;;;1783813;80;21048;-61
2022/10/25 00:37:51;;;;;;;23.98;14.43;;;;;;;;;;1786219;80;21498;-61
2022/10/25 00:40:18;;;;;;;16.87;11.90;;;;;;;;;;1783847;80;21029;-61
2022/10/25 00:42:43;;;;;;;22.13;13.68;;;;;;;;;;1779486;79;21015;-61
2022/10/25 00:45:12;;;;;;;21.20;13.72;;;;;;;;;;1786408;80;21535;-61
2022/10/25 00:47:42;;;;;;;20.95;13.18;;;;;;;;;;1745860;81;21068;-61
2022/10/25 00:50:27;;;;;;;21.68;13.18;;;;;;;;;;1779325;80;20946;-61
2022/10/25 00:52:55;;;;;;;18.98;12.95;;;;;;;;;;1751773;80;21071;-61
2022/10/25 00:55:21;;;;;;;21.20;13.93;;;;;;;;;;1777754;80;21032;-61
2022/10/25 00:57:52;;;;;;;19.42;13.38;;;;;;;;;;1782884;80;21069;-61
2022/10/25 01:00:18;;;;;;;20.75;14.15;;;;;;;;;;1773216;80;21024;-61
2022/10/25 01:02:45;;;;;;;23.12;14.33;;;;;;;;;;1779057;80;21048;-62
2022/10/25 01:05:11;;;;;;;20.12;13.40;;;;;;;;;;1784447;80;21052;-61
2022/10/25 01:07:38;;;;;;;19.67;13.10;;;;;;;;;;1785243;80;21088;-63
2022/10/25 01:10:05;;;;;;;19.98;13.20;;;;;;;;;;1766957;80;21562;-61
2022/10/25 01:12:32;;;;;;;19.32;13.22;;;;;;;;;;1771149;79;21579;-62
2022/10/25 01:14:59;;;;;;;22.25;14.45;;;;;;;;;;1755381;80;21088;-61
2022/10/25 01:17:27;;;;;;;22.22;14.15;;;;;;;;;;1755469;80;21060;-61
2022/10/25 01:19:55;;;;;;;20.17;13.45;;;;;;;;;;1786628;80;21053;-61
2022/10/25 01:22:42;;;;;;;19.27;13.55;;;;;;;;;;1766293;80;21065;-61
2022/10/25 01:25:13;;;;;;;19.48;12.95;;;;;;;;;;1752989;80;21547;-61
2022/10/25 01:27:56;;;;;;;20.60;13.10;;;;;;;;;;1753077;82;21112;-61
2022/10/25 01:30:23;;;;;;;20.65;13.98;;;;;;;;;;1743394;81;21135;-61
2022/10/25 01:32:53;;;;;;;21.77;13.43;;;;;;;;;;1754572;80;21489;-61
2022/10/25 01:35:30;;;;;;;20.35;13.10;;;;;;;;;;1734838;82;21575;-61
2022/10/25 01:38:02;;;;;;;21.27;12.53;;;;;;;;;;1777001;81;21038;-61
2022/10/25 01:40:30;;;;;;;23.18;14.30;;;;;;;;;;1789824;79;21048;-61
2022/10/25 01:43:15;;;;;;;23.00;14.33;;;;;;;;;;1755694;81;21049;-61
2022/10/25 01:45:46;;;;;;;19.92;12.85;;;;;;;;;;1761740;79;21103;-61
2022/10/25 01:48:25;;;;;;;23.05;13.93;;;;;;;;;;1770452;79;21037;-61
2022/10/25 01:50:52;;;;;;;21.52;13.83;;;;;;;;;;1753478;81;21017;-62
2022/10/25 01:53:18;;;;;;;23.73;13.13;;;;;;;;;;1770785;79;21120;-61
2022/10/25 01:55:48;;;;;;;21.65;13.28;;;;;;;;;;1764559;79;21626;-61
2022/10/25 01:58:33;;;;;;;20.68;12.13;;;;;;;;;;1767008;81;21541;-62
2022/10/25 02:03:56;;;;;;;21.02;13.32;;;;;;;;;;1750601;78;75875;-62
2022/10/25 02:06:24;;;;;;;18.42;13.30;;;;;;;;;;1778631;80;21016;-62
2022/10/25 02:09:02;;;;;;;21.05;13.10;;;;;;;;;;1766999;80;21020;-62
2022/10/25 02:11:29;;;;;;;21.73;13.20;;;;;;;;;;1727831;81;21041;-62
2022/10/25 02:14:00;;;;;;;23.35;14.83;;;;;;;;;;1760569;81;21052;-62
2022/10/25 02:16:27;;;;;;;21.15;13.40;;;;;;;;;;1720048;81;21058;-61
2022/10/25 02:18:55;;;;;;;23.27;13.83;;;;;;;;;;1746816;81;21084;-62
2022/10/25 02:21:22;;;;;;;24.70;13.98;;;;;;;;;;1765478;81;21492;-61
2022/10/25 02:23:48;;;;;;;21.73;13.13;;;;;;;;;;1753987;81;21067;-61
2022/10/25 02:26:14;;;;;;;19.98;12.80;;;;;;;;;;1743962;81;21500;-62
2022/10/25 02:28:41;;;;;;;19.80;13.15;;;;;;;;;;1743257;81;21052;-62
2022/10/25 02:31:08;;;;;;;21.33;13.58;;;;;;;;;;1755680;81;21064;-62
2022/10/25 02:33:35;;;;;;;21.68;13.18;;;;;;;;;;1760294;81;21025;-62
2022/10/25 02:36:05;;;;;;;22.02;13.48;;;;;;;;;;1747111;81;21433;-62
2022/10/25 02:38:32;;;;;;;21.27;13.35;;;;;;;;;;1759487;81;20997;-62
2022/10/25 02:40:58;;;;;;;18.57;12.85;;;;;;;;;;1760029;81;21013;-62
2022/10/25 02:43:24;;;;;;;20.43;13.62;;;;;;;;;;1741716;81;21089;-62
2022/10/25 02:45:50;;;;;;;22.27;14.28;;;;;;;;;;1745869;81;21048;-62
2022/10/25 02:48:16;;;;;;;21.30;13.90;;;;;;;;;;1743578;81;21064;-62
2022/10/25 02:50:43;;;;;;;19.75;13.40;;;;;;;;;;1747704;81;21057;-62
2022/10/25 02:53:09;;;;;;;21.95;13.62;;;;;;;;;;1746015;81;21071;-62
2022/10/25 02:55:37;;;;;;;20.75;13.10;;;;;;;;;;1748091;81;21060;-62
2022/10/25 02:58:03;;;;;;;20.37;13.98;;;;;;;;;;1740758;81;21092;-61
2022/10/25 03:00:30;;;;;;;21.85;14.00;;;;;;;;;;1747113;81;21070;-61
2022/10/25 03:02:56;;;;;;;22.35;14.18;;;;;;;;;;1739830;81;21495;-62
2022/10/25 03:05:22;;;;;;;18.73;12.73;;;;;;;;;;1722113;82;21005;-62
2022/10/25 03:07:49;;;;;;;21.23;14.05;;;;;;;;;;1722346;83;21045;-61
2022/10/25 03:10:15;;;;;;;18.60;13.03;;;;;;;;;;1720384;82;21005;-62
2022/10/25 03:12:43;;;;;;;17.48;12.95;;;;;;;;;;1722630;83;21040;-62
2022/10/25 03:15:09;;;;;;;18.42;12.30;;;;;;;;;;1722178;83;21544;-61
2022/10/25 03:17:36;;;;;;;19.80;12.93;;;;;;;;;;1722295;83;21540;-62
2022/10/25 03:20:04;;;;;;;20.02;12.70;;;;;;;;;;1721601;82;21856;-62
2022/10/25 03:22:30;;;;;;;18.32;12.53;;;;;;;;;;1722445;83;21500;-60
2022/10/25 03:24:56;;;;;;;19.65;12.78;;;;;;;;;;1722140;83;21042;-61
2022/10/25 03:27:23;;;;;;;17.10;12.33;;;;;;;;;;1721876;83;20947;-60
2022/10/25 03:29:49;;;;;;;17.05;12.43;;;;;;;;;;1722482;83;21042;-60
2022/10/25 03:32:15;;;;;;;19.05;12.33;;;;;;;;;;1722357;83;21054;-61
2022/10/25 03:34:41;;;;;;;18.48;12.55;;;;;;;;;;1722213;83;21100;-61
2022/10/25 03:37:07;;;;;;;21.35;12.80;;;;;;;;;;1699300;83;21846;-60
2022/10/25 03:39:34;;;;;;;19.20;12.45;;;;;;;;;;1721369;83;21053;-61
2022/10/25 03:42:00;;;;;;;18.55;12.63;;;;;;;;;;1722182;83;21104;-61
2022/10/25 03:44:27;;;;;;;18.30;12.28;;;;;;;;;;1722107;83;21104;-61
2022/10/25 03:46:53;;;;;;;17.87;12.53;;;;;;;;;;1721600;83;21077;-61
2022/10/25 03:49:19;;;;;;;17.40;11.73;;;;;;;;;;1721485;83;21572;-61
2022/10/25 03:51:45;;;;;;;16.82;11.75;;;;;;;;;;1722329;83;21043;-61
2022/10/25 03:54:12;;;;;;;19.02;12.55;;;;;;;;;;1721947;83;21037;-61
2022/10/25 03:56:39;;;;;;;17.42;11.95;;;;;;;;;;1722085;82;21076;-60
2022/10/25 03:59:05;;;;;;;20.17;14.58;;;;;;;;;;1722538;83;21045;-61
2022/10/25 04:01:33;;;;;;;29.57;19.60;;;;;;;;;;1720674;83;21018;-60
2022/10/25 04:03:59;;;;;;;33.38;20.48;;;;;;;;;;1722290;82;21627;-60
2022/10/25 04:06:25;;;;;;;31.25;19.52;;;;;;;;;;1721805;83;21033;-60
2022/10/25 04:08:52;;;;;;;39.75;21.85;;;;;;;;;;1721442;83;21046;-60
2022/10/25 04:11:20;;;;;;;45.85;26.62;;;;;;;;;;1715102;83;21060;-62
2022/10/25 04:13:46;;;;;;;50.08;28.02;;;;;;;;;;1721936;83;21001;-62
2022/10/25 04:16:13;;;;;;;54.85;29.00;;;;;;;;;;1722170;83;21010;-62
2022/10/25 04:18:40;;;;;;;51.33;26.10;;;;;;;;;;1721390;82;21571;-64
2022/10/25 04:21:07;;;;;;;50.52;26.55;;;;;;;;;;1721614;83;21036;-63
2022/10/25 04:23:35;;;;;;;37.50;21.55;;;;;;;;;;1722091;83;21776;-62
2022/10/25 04:26:01;;;;;;;26.95;14.25;;;;;;;;;;1722270;83;21041;-62
2022/10/25 04:28:27;;;;;;;20.45;11.90;;;;;;;;;;1722215;83;21017;-63
2022/10/25 04:30:54;;;;;;;21.52;13.70;;;;;;;;;;1720004;83;21056;-62
2022/10/25 04:33:20;;;;;;;17.42;11.65;;;;;;;;;;1715418;83;21017;-62
2022/10/25 04:35:54;;;;;;;17.05;12.03;;;;;;;;;;1718028;83;22370;-62
2022/10/25 04:38:20;;;;;;;13.90;11.43;;;;;;;;;;1695311;83;21033;-62
2022/10/25 04:40:53;;;;;;;21.37;13.85;;;;;;;;;;1716655;83;21590;-62
2022/10/25 04:43:19;;;;;;;26.73;17.60;;;;;;;;;;1722013;83;21018;-62
2022/10/25 04:45:45;;;;;;;31.15;19.75;;;;;;;;;;1720568;83;21085;-62
2022/10/25 04:48:12;;;;;;;36.68;22.27;;;;;;;;;;1720496;83;21048;-62
2022/10/25 04:50:37;;;;;;;37.95;22.40;;;;;;;;;;1722085;83;21506;-63
2022/10/25 04:53:04;;;;;;;32.40;18.90;;;;;;;;;;1706310;83;21031;-63
2022/10/25 04:55:31;;;;;;;22.27;14.35;;;;;;;;;;1709064;83;21042;-62
2022/10/25 04:57:57;;;;;;;17.42;11.95;;;;;;;;;;1722027;83;21512;-63
2022/10/25 05:00:23;;;;;;;18.12;11.95;;;;;;;;;;1721905;82;21075;-62
2022/10/25 05:02:50;;;;;;;17.85;11.63;;;;;;;;;;1722222;82;21104;-62
2022/10/25 05:05:17;;;;;;;17.15;11.97;;;;;;;;;;1723402;83;21029;-63
2022/10/25 05:07:44;;;;;;;18.67;11.88;;;;;;;;;;1741833;82;21041;-63
2022/10/25 05:10:10;;;;;;;20.75;13.43;;;;;;;;;;1746187;82;21094;-63
2022/10/25 05:12:38;;;;;;;23.98;16.52;;;;;;;;;;1746903;82;21043;-62
2022/10/25 05:15:05;;;;;;;23.05;15.35;;;;;;;;;;1739345;82;21580;-62
2022/10/25 05:17:32;;;;;;;28.10;17.73;;;;;;;;;;1746835;82;21065;-62
2022/10/25 05:19:59;;;;;;;30.35;18.15;;;;;;;;;;1738707;82;21040;-62
2022/10/25 05:22:26;;;;;;;26.87;16.77;;;;;;;;;;1761059;81;21095;-61
2022/10/25 05:24:52;;;;;;;22.05;14.75;;;;;;;;;;1732610;83;21590;-61
2022/10/25 05:27:18;;;;;;;20.32;14.78;;;;;;;;;;1744540;82;21080;-61
2022/10/25 05:29:44;;;;;;;24.10;17.57;;;;;;;;;;1756605;81;21005;-62
2022/10/25 05:32:11;;;;;;;23.25;16.65;;;;;;;;;;1729873;83;21571;-60
2022/10/25 05:34:37;;;;;;;21.65;13.90;;;;;;;;;;1744267;82;20993;-63
2022/10/25 05:37:03;;;;;;;20.32;14.30;;;;;;;;;;1743434;82;21567;-61
2022/10/25 05:39:30;;;;;;;21.73;15.60;;;;;;;;;;1760482;81;21088;-61
2022/10/25 05:41:56;;;;;;;23.27;14.50;;;;;;;;;;1729116;81;21088;-61
2022/10/25 05:44:22;;;;;;;20.82;13.48;;;;;;;;;;1740507;82;20954;-61
2022/10/25 05:46:49;;;;;;;19.77;13.78;;;;;;;;;;1742650;82;20966;-61
2022/10/25 05:49:15;;;;;;;21.42;13.75;;;;;;;;;;1760559;81;21067;-62
2022/10/25 05:51:41;;;;;;;21.17;14.35;;;;;;;;;;1727925;83;21123;-62
2022/10/25 05:54:11;;;;;;;25.90;15.90;;;;;;;;;;1685337;84;21060;-62
2022/10/25 05:56:37;;;;;;;25.08;14.03;;;;;;;;;;1708001;83;21018;-62
2022/10/25 06:00:37;;;;;;;20.48;13.35;;;;;;;;;;1771939;79;22689;-62
2022/10/25 06:03:03;;;;;;;24.20;13.45;;;;;;;;;;1753682;81;21594;-62
2022/10/25 06:05:31;;;;;;;18.87;12.53;;;;;;;;;;1748470;82;21064;-62
2022/10/25 06:07:57;;;;;;;18.87;12.03;;;;;;;;;;1736949;82;21053;-62
2022/10/25 06:10:24;;;;;;;24.05;12.33;;;;;;;;;;1748438;81;21052;-61
2022/10/25 06:12:50;;;;;;;24.80;15.13;;;;;;;;;;1736371;82;21064;-61
2022/10/25 06:15:17;;;;;;;50.67;25.48;;;;;;;;;;1736090;82;21051;-62
2022/10/25 06:17:45;;;;;;;58.40;29.32;;;;;;;;;;1735831;82;21460;-62
2022/10/25 06:20:12;;;;;;;72.27;31.87;;;;;;;;;;1733128;81;21045;-63
2022/10/25 06:22:39;;;;;;;99.45;45.58;;;;;;;;;;1744684;82;21023;-62
2022/10/25 06:25:06;;;;;;;82.97;37.58;;;;;;;;;;1744435;82;21118;-63
2022/10/25 06:27:33;;;;;;;51.05;26.07;;;;;;;;;;1736614;82;21098;-63
2022/10/25 06:29:59;;;;;;;31.55;15.60;;;;;;;;;;1739952;82;21064;-63
2022/10/25 06:32:26;;;;;;;21.62;12.40;;;;;;;;;;1737632;80;21135;-62
2022/10/25 06:34:52;;;;;;;16.40;10.98;;;;;;;;;;1737446;82;21293;-62
2022/10/25 06:37:19;;;;;;;17.35;9.93;;;;;;;;;;1737552;82;21032;-62
2022/10/25 06:39:46;;;;;;;14.47;9.15;;;;;;;;;;1738364;82;21057;-63
2022/10/25 06:42:12;;;;;;;15.15;9.05;;;;;;;;;;1737766;82;21080;-63
2022/10/25 06:44:38;;;;;;;13.72;8.30;;;;;;;;;;1737762;82;21071;-63
2022/10/25 06:47:05;;;;;;;16.40;10.65;;;;;;;;;;1737340;82;21539;-62
2022/10/25 06:49:33;;;;;;;15.20;10.03;;;;;;;;;;1737601;82;21079;-63
2022/10/25 06:51:59;;;;;;;16.87;10.98;;;;;;;;;;1737626;82;21068;-63
2022/10/25 06:54:25;;;;;;;13.45;8.65;;;;;;;;;;1737732;82;21548;-63
2022/10/25 06:56:52;;;;;;;15.03;9.48;;;;;;;;;;1737376;82;21068;-63
2022/10/25 06:59:19;;;;;;;16.42;8.88;;;;;;;;;;1733044;81;21092;-63
2022/10/25 07:01:45;;;;;;;14.03;8.58;;;;;;;;;;1723614;83;21095;-63
2022/10/25 07:04:12;;;;;;;12.55;8.45;;;;;;;;;;1724790;83;21119;-63
2022/10/25 07:06:40;;;;;;;12.93;8.23;;;;;;;;;;1725109;83;22294;-63
2022/10/25 07:09:08;;;;;;;12.37;8.33;;;;;;;;;;1724836;83;21048;-63
2022/10/25 07:11:36;;;;;;;15.43;9.00;;;;;;;;;;1716496;83;21096;-63
2022/10/25 07:14:04;;;;;;;11.40;8.08;;;;;;;;;;1712461;83;21025;-62
2022/10/25 07:16:31;;;;;;;15.25;9.00;;;;;;;;;;1716702;83;21048;-62
2022/10/25 07:19:01;;;;;;;14.38;9.00;;;;;;;;;;1709943;83;21096;-62
2022/10/25 07:21:28;;;;;;;14.07;7.85;;;;;;;;;;1718401;83;21036;-63
2022/10/25 07:23:54;;;;;;;13.22;7.65;;;;;;;;;;1702808;82;21587;-62
2022/10/25 07:26:22;;;;;;;12.65;8.23;;;;;;;;;;1714923;83;21071;-62
2022/10/25 07:28:49;;;;;;;10.93;7.72;;;;;;;;;;1728130;83;21483;-61
2022/10/25 07:31:22;;;;;;;13.40;8.00;;;;;;;;;;1714447;83;21033;-61
2022/10/25 07:33:49;;;;;;;11.10;7.62;;;;;;;;;;1707469;83;21557;-61
2022/10/25 07:36:16;;;;;;;11.33;7.55;;;;;;;;;;1707507;83;21033;-60
2022/10/25 07:38:42;;;;;;;14.53;8.48;;;;;;;;;;1712766;83;21047;-61
2022/10/25 07:41:09;;;;;;;13.10;8.05;;;;;;;;;;1715481;82;21052;-61
2022/10/25 07:43:35;;;;;;;14.30;8.25;;;;;;;;;;1733334;83;21508;-62
2022/10/25 07:46:01;;;;;;;11.18;7.67;;;;;;;;;;1715371;83;21056;-61
2022/10/25 07:48:27;;;;;;;11.35;7.87;;;;;;;;;;1710663;83;21112;-61
2022/10/25 07:50:54;;;;;;;12.25;7.30;;;;;;;;;;1714955;83;21072;-61
2022/10/25 07:53:21;;;;;;;11.28;7.25;;;;;;;;;;1699516;84;21112;-61
2022/10/25 07:55:50;;;;;;;12.55;7.75;;;;;;;;;;1716683;83;21079;-61
2022/10/25 07:58:17;;;;;;;11.45;7.12;;;;;;;;;;1712038;83;21052;-61
2022/10/25 08:00:43;;;;;;;12.00;7.20;;;;;;;;;;1723376;82;22079;-62
2022/10/25 08:03:09;;;;;;;10.25;6.72;;;;;;;;;;1736730;82;21109;-61
2022/10/25 08:05:36;;;;;;;11.12;6.58;;;;;;;;;;1715400;82;21008;-62
2022/10/25 08:08:04;;;;;;;13.60;7.78;;;;;;;;;;1725118;81;21017;-61
2022/10/25 08:10:30;;;;;;;10.90;7.55;;;;;;;;;;1730548;82;21001;-62
2022/10/25 08:12:57;;;;;;;13.72;8.88;;;;;;;;;;1727288;82;21072;-63
2022/10/25 08:15:23;;;;;;;13.85;9.58;;;;;;;;;;1731779;82;21695;-62
2022/10/25 08:17:56;;;;;;;13.08;9.10;;;;;;;;;;1729161;82;21053;-61
2022/10/25 08:20:23;;;;;;;13.38;8.13;;;;;;;;;;1730250;82;21045;-62
2022/10/25 08:22:49;;;;;;;14.20;8.25;;;;;;;;;;1727887;82;21375;-62
2022/10/25 08:25:15;;;;;;;10.05;7.28;;;;;;;;;;1731420;82;21929;-62
2022/10/25 08:27:42;;;;;;;10.75;7.15;;;;;;;;;;1730842;82;21528;-62
2022/10/25 08:30:08;;;;;;;11.30;7.22;;;;;;;;;;1732612;82;21044;-63
2022/10/25 08:32:38;;;;;;;9.78;6.53;;;;;;;;;;1724554;82;21068;-62
2022/10/25 08:35:04;;;;;;;8.40;6.40;;;;;;;;;;1727103;81;21052;-61
2022/10/25 08:37:30;;;;;;;11.53;6.87;;;;;;;;;;1731079;81;21110;-62
2022/10/25 08:39:56;;;;;;;10.18;7.25;;;;;;;;;;1733687;81;21092;-62
2022/10/25 08:42:43;;;;;;;11.85;6.95;;;;;;;;;;1695156;83;21054;-62
2022/10/25 08:45:14;;;;;;;9.68;6.62;;;;;;;;;;1668835;84;21132;-63
2022/10/25 08:47:44;;;;;;;11.15;7.60;;;;;;;;;;1733866;82;21044;-60
2022/10/25 08:50:13;;;;;;;13.45;7.78;;;;;;;;;;1725722;82;21017;-61
2022/10/25 08:52:43;;;;;;;12.80;6.90;;;;;;;;;;1722027;82;21299;-61
2022/10/25 08:55:11;;;;;;;11.50;6.87;;;;;;;;;;1729020;81;21050;-61
2022/10/25 08:57:38;;;;;;;12.07;7.47;;;;;;;;;;1734094;82;21085;-61
2022/10/25 09:00:09;;;;;;;12.90;7.80;;;;;;;;;;1731311;82;21025;-62
2022/10/25 09:02:41;;;;;;;12.37;7.75;;;;;;;;;;1724546;82;21092;-61
2022/10/25 09:05:16;;;;;;;12.03;7.85;;;;;;;;;;1733817;82;21048;-62
2022/10/25 09:07:44;;;;;;;8.78;6.03;;;;;;;;;;1725053;82;21112;-63
2022/10/25 09:10:15;;;;;;;8.63;6.45;;;;;;;;;;1733073;82;21028;-62
2022/10/25 09:12:43;;;;;;;9.75;6.60;;;;;;;;;;1729750;82;22148;-61
2022/10/25 09:15:14;;;;;;;9.33;5.92;;;;;;;;;;1726647;82;21069;-61
2022/10/25 09:17:42;;;;;;;9.75;7.90;;;;;;;;;;1729489;82;21095;-62
2022/10/25 09:20:12;;;;;;;10.93;7.15;;;;;;;;;;1718262;81;21060;-63
2022/10/25 09:22:43;;;;;;;12.28;8.30;;;;;;;;;;1720638;82;21196;-63
2022/10/25 09:25:21;;;;;;;12.60;8.48;;;;;;;;;;1734747;82;21381;-61
2022/10/25 09:27:52;;;;;;;11.10;7.87;;;;;;;;;;1723168;82;22149;-61
2022/10/25 09:30:18;;;;;;;11.25;7.00;;;;;;;;;;1734851;82;21021;-61
2022/10/25 09:32:45;;;;;;;9.33;6.40;;;;;;;;;;1727569;82;21001;-61
2022/10/25 09:35:16;;;;;;;8.63;6.05;;;;;;;;;;1727207;82;21061;-61
2022/10/25 09:37:44;;;;;;;9.10;6.12;;;;;;;;;;1730234;82;21060;-61
2022/10/25 09:40:23;;;;;;;10.20;6.08;;;;;;;;;;1728700;81;21124;-62
2022/10/25 09:42:50;;;;;;;9.85;6.62;;;;;;;;;;1735700;81;20993;-61
2022/10/25 09:45:21;;;;;;;10.98;6.33;;;;;;;;;;1730072;81;21701;-60
2022/10/25 09:47:49;;;;;;;12.00;6.33;;;;;;;;;;1735871;81;21084;-59
2022/10/25 09:50:17;;;;;;;11.35;6.50;;;;;;;;;;1733915;81;21049;-60
2022/10/25 09:52:48;;;;;;;10.72;7.17;;;;;;;;;;1718360;81;21021;-61
2022/10/25 09:55:32;;;;;;;11.57;6.65;;;;;;;;;;1733009;82;21040;-61
2022/10/25 09:57:58;;;;;;;10.53;6.30;;;;;;;;;;1733726;81;21060;-61
2022/10/25 10:00:24;;;;;;;9.93;6.47;;;;;;;;;;1727588;81;21108;-61
2022/10/25 10:02:51;;;;;;;8.85;6.17;;;;;;;;;;1729325;82;21178;-61
2022/10/25 10:05:18;;;;;;;9.50;6.30;;;;;;;;;;1727890;82;21009;-61
2022/10/25 10:07:44;;;;;;;8.73;6.22;;;;;;;;;;1728705;82;21555;-61
2022/10/25 10:10:12;;;;;;;12.43;6.60;;;;;;;;;;1723706;82;21040;-61
2022/10/25 10:12:44;;;;;;;10.98;6.05;;;;;;;;;;1724800;81;21656;-62
2022/10/25 10:15:12;;;;;;;9.60;6.65;;;;;;;;;;1727453;82;20994;-62
2022/10/25 10:17:40;;;;;;;10.85;6.60;;;;;;;;;;1719205;82;21095;-62
2022/10/25 10:20:10;;;;;;;8.95;6.03;;;;;;;;;;1729733;82;21036;-61
2022/10/25 10:22:38;;;;;;;13.75;6.75;;;;;;;;;;1739076;82;21205;-61
2022/10/25 10:25:05;;;;;;;11.57;7.28;;;;;;;;;;1737937;82;21601;-61
2022/10/25 10:27:31;;;;;;;9.33;6.55;;;;;;;;;;1712661;82;21063;-61
2022/10/25 10:30:02;;;;;;;9.90;6.67;;;;;;;;;;1708277;84;21082;-62
2022/10/25 10:32:34;;;;;;;9.03;6.27;;;;;;;;;;1733454;81;21048;-63
2022/10/25 10:35:04;;;;;;;9.75;6.47;;;;;;;;;;1742209;81;20989;-63
2022/10/25 10:37:31;;;;;;;8.48;5.87;;;;;;;;;;1731219;82;21539;-60
2022/10/25 10:39:59;;;;;;;8.75;6.22;;;;;;;;;;1751665;82;21066;-60
2022/10/25 10:42:33;;;;;;;10.82;6.17;;;;;;;;;;1739019;82;21045;-61
2022/10/25 10:45:08;;;;;;;10.35;5.80;;;;;;;;;;1724018;82;21100;-61
2022/10/25 10:47:37;;;;;;;11.95;6.42;;;;;;;;;;1729502;82;21037;-61
2022/10/25 10:50:14;;;;;;;9.53;6.00;;;;;;;;;;1718627;83;21005;-61
2022/10/25 10:52:41;;;;;;;9.90;6.30;;;;;;;;;;1726240;82;21060;-60
2022/10/25 10:55:18;;;;;;;10.60;5.90;;;;;;;;;;1725575;82;21056;-60
2022/10/25 10:57:44;;;;;;;10.55;6.47;;;;;;;;;;1738243;82;21069;-60
2022/10/25 11:00:21;;;;;;;9.03;6.08;;;;;;;;;;1738453;82;21061;-61
2022/10/25 11:02:47;;;;;;;8.83;6.22;;;;;;;;;;1733692;82;21056;-61
2022/10/25 11:05:26;;;;;;;11.40;6.30;;;;;;;;;;1725124;82;21652;-61
2022/10/25 11:07:56;;;;;;;11.75;6.70;;;;;;;;;;1728910;82;21040;-61
2022/10/25 11:10:24;;;;;;;14.38;7.53;;;;;;;;;;1715453;82;21041;-61
2022/10/25 11:13:01;;;;;;;13.22;7.17;;;;;;;;;;1730579;82;21084;-61
2022/10/25 11:15:28;;;;;;;20.95;11.80;;;;;;;;;;1651028;85;21148;-61
2022/10/25 11:17:58;;;;;;;26.50;15.15;;;;;;;;;;1712215;82;21120;-61
2022/10/25 11:20:27;;;;;;;27.37;17.12;;;;;;;;;;1732831;82;21021;-61
2022/10/25 11:22:58;;;;;;;21.77;13.53;;;;;;;;;;1733458;82;21599;-62
2022/10/25 11:25:29;;;;;;;18.62;11.10;;;;;;;;;;1731584;82;21063;-61
2022/10/25 11:28:03;;;;;;;16.17;7.85;;;;;;;;;;1736625;82;21037;-61
2022/10/25 11:30:40;;;;;;;10.70;6.95;;;;;;;;;;1737144;82;21055;-61
2022/10/25 11:33:15;;;;;;;12.37;7.53;;;;;;;;;;1737675;81;21096;-61
2022/10/25 11:35:44;;;;;;;11.88;6.20;;;;;;;;;;1735055;81;21061;-61
2022/10/25 11:38:14;;;;;;;11.00;6.75;;;;;;;;;;1725380;82;21328;-62
2022/10/25 11:40:42;;;;;;;11.50;6.90;;;;;;;;;;1734853;82;21043;-62
2022/10/25 11:43:23;;;;;;;10.93;7.15;;;;;;;;;;1730412;82;21064;-62
2022/10/25 11:45:51;;;;;;;9.50;5.65;;;;;;;;;;1727580;82;21029;-62
2022/10/25 11:48:19;;;;;;;7.20;5.12;;;;;;;;;;1734494;81;21493;-61
2022/10/25 11:51:04;;;;;;;8.10;4.78;;;;;;;;;;1730328;82;21430;-62
2022/10/25 11:53:47;;;;;;;9.83;4.97;;;;;;;;;;1719579;82;21531;-62
2022/10/25 11:56:21;;;;;;;8.23;5.00;;;;;;;;;;1729556;82;20998;-61
2022/10/25 11:58:58;;;;;;;7.72;5.47;;;;;;;;;;1730787;81;21497;-60
2022/10/25 12:01:26;;;;;;;9.78;5.72;;;;;;;;;;1732514;82;21107;-61
2022/10/25 12:04:03;;;;;;;9.43;5.33;;;;;;;;;;1719546;81;21067;-61
2022/10/25 12:06:37;;;;;;;9.05;5.10;;;;;;;;;;1743411;82;22094;-61
2022/10/25 12:09:05;;;;;;;10.40;5.15;;;;;;;;;;1740477;82;21060;-62
2022/10/25 12:11:33;;;;;;;9.13;5.50;;;;;;;;;;1734061;82;21040;-62
2022/10/25 12:14:01;;;;;;;12.18;5.75;;;;;;;;;;1727406;82;21651;-62
2022/10/25 12:16:27;;;;;;;7.65;5.72;;;;;;;;;;1730422;82;21057;-62
2022/10/25 12:18:55;;;;;;;9.15;5.55;;;;;;;;;;1733094;82;21029;-61
2022/10/25 12:21:26;;;;;;;11.60;5.70;;;;;;;;;;1735473;82;21032;-61
2022/10/25 12:23:54;;;;;;;8.58;5.10;;;;;;;;;;1735347;82;21024;-62
2022/10/25 12:26:25;;;;;;;8.88;5.25;;;;;;;;;;1743279;81;21013;-61
2022/10/25 12:28:51;;;;;;;8.45;5.53;;;;;;;;;;1734038;81;21045;-61
2022/10/25 12:31:19;;;;;;;9.53;6.40;;;;;;;;;;1736152;81;21564;-61
2022/10/25 12:33:53;;;;;;;12.50;7.70;;;;;;;;;;1737465;81;21078;-61
2022/10/25 12:36:24;;;;;;;10.93;8.15;;;;;;;;;;1735927;81;21568;-61
2022/10/25 12:38:50;;;;;;;12.88;8.85;;;;;;;;;;1735936;81;21039;-61
2022/10/25 12:41:21;;;;;;;11.97;7.78;;;;;;;;;;1734719;81;21070;-61
2022/10/25 12:43:52;;;;;;;9.75;7.17;;;;;;;;;;1740115;81;21477;-62
2022/10/25 12:46:37;;;;;;;12.63;7.72;;;;;;;;;;1737196;81;21122;-61
2022/10/25 12:49:08;;;;;;;13.83;8.63;;;;;;;;;;1737386;81;21376;-61
2022/10/25 12:51:36;;;;;;;15.72;8.93;;;;;;;;;;1735414;81;20990;-62
2022/10/25 12:54:13;;;;;;;13.43;8.98;;;;;;;;;;1735154;81;21032;-62
2022/10/25 12:56:44;;;;;;;15.13;9.45;;;;;;;;;;1736468;81;21057;-62
2022/10/25 12:59:29;;;;;;;12.03;8.35;;;;;;;;;;1736641;81;21547;-62
2022/10/25 13:01:57;;;;;;;13.65;8.60;;;;;;;;;;1732986;81;21057;-62
2022/10/25 13:04:31;;;;;;;12.35;8.98;;;;;;;;;;1735785;81;22105;-62
2022/10/25 13:06:57;;;;;;;13.15;8.13;;;;;;;;;;1732585;81;21069;-62
2022/10/25 13:09:26;;;;;;;12.82;9.03;;;;;;;;;;1734295;81;21060;-62
2022/10/25 13:12:03;;;;;;;12.85;8.55;;;;;;;;;;1733644;81;20998;-62
2022/10/25 13:14:38;;;;;;;13.08;9.23;;;;;;;;;;1730410;81;21083;-61
2022/10/25 13:17:18;;;;;;;15.50;8.48;;;;;;;;;;1732928;81;22351;-61
2022/10/25 13:19:46;;;;;;;12.45;8.60;;;;;;;;;;1697992;83;21049;-61
2022/10/25 13:22:31;;;;;;;12.23;8.65;;;;;;;;;;1664593;84;21081;-61
2022/10/25 13:24:58;;;;;;;15.08;9.68;;;;;;;;;;1676695;85;21101;-60
2022/10/25 13:27:28;;;;;;;13.95;9.40;;;;;;;;;;1733080;81;21219;-61
2022/10/25 13:30:02;;;;;;;15.98;9.33;;;;;;;;;;1735474;81;21060;-61
2022/10/25 13:32:29;;;;;;;12.00;8.28;;;;;;;;;;1733474;81;21044;-62
2022/10/25 13:34:58;;;;;;;14.95;9.95;;;;;;;;;;1732933;82;21024;-63
2022/10/25 13:37:32;;;;;;;18.40;12.18;;;;;;;;;;1728348;82;21513;-62
2022/10/25 13:40:04;;;;;;;15.38;9.55;;;;;;;;;;1736847;82;21521;-62
2022/10/25 13:42:34;;;;;;;15.10;8.98;;;;;;;;;;1730000;82;21036;-62
2022/10/25 13:45:05;;;;;;;15.45;8.98;;;;;;;;;;1726355;82;21855;-62
2022/10/25 13:47:42;;;;;;;13.78;8.33;;;;;;;;;;1736244;82;21104;-62
2022/10/25 13:50:13;;;;;;;14.90;8.70;;;;;;;;;;1724857;82;21045;-62
2022/10/25 13:53:00;;;;;;;13.22;8.75;;;;;;;;;;1724234;83;21075;-62
2022/10/25 13:55:28;;;;;;;14.87;9.15;;;;;;;;;;1723839;82;21024;-61
2022/10/25 13:57:55;;;;;;;13.93;9.05;;;;;;;;;;1730000;82;21057;-61
2022/10/25 14:00:26;;;;;;;12.90;9.10;;;;;;;;;;1738058;82;21053;-61
2022/10/25 14:03:06;;;;;;;14.55;9.33;;;;;;;;;;1731153;82;21102;-62
2022/10/25 14:05:51;;;;;;;13.48;8.65;;;;;;;;;;1729816;81;21086;-62
2022/10/25 14:08:27;;;;;;;12.98;9.03;;;;;;;;;;1732183;81;22119;-61
2022/10/25 14:10:53;;;;;;;17.45;9.55;;;;;;;;;;1732669;81;21084;-62
2022/10/25 14:13:24;;;;;;;12.58;9.50;;;;;;;;;;1727661;82;21031;-61
2022/10/25 14:15:52;;;;;;;13.72;8.90;;;;;;;;;;1717667;82;21052;-63
2022/10/25 14:18:20;;;;;;;13.20;8.70;;;;;;;;;;1737678;82;21100;-62
2022/10/25 14:20:47;;;;;;;12.85;9.18;;;;;;;;;;1730427;82;21165;-62
2022/10/25 14:23:14;;;;;;;13.98;10.08;;;;;;;;;;1727496;82;21073;-62
2022/10/25 14:25:43;;;;;;;14.05;10.58;;;;;;;;;;1732895;81;21100;-60
2022/10/25 14:28:11;;;;;;;15.95;10.60;;;;;;;;;;1725212;82;21047;-61
2022/10/25 14:30:39;;;;;;;15.90;9.55;;;;;;;;;;1734813;82;21044;-61
2022/10/25 14:33:06;;;;;;;18.00;12.07;;;;;;;;;;1721771;82;21095;-61
2022/10/25 14:35:35;;;;;;;20.90;13.28;;;;;;;;;;1707458;82;21072;-61
2022/10/25 14:38:02;;;;;;;18.52;13.05;;;;;;;;;;1738215;82;21033;-61
2022/10/25 14:40:29;;;;;;;22.15;13.78;;;;;;;;;;1728133;82;22214;-61